• Join FlightAware (Why Join?)
  • Login
  • US Flag 
02:32AM EDT


 

Airport Tracker/Info


-or-


 

Live Flight TrackerFlight Track Log ✈ QXE2087 ✈ 27-Oct-2013 ✈ KALW - KSEA

Flight Track Log - Related Links

Times and Time Zones

All times are in EDT time to prevent confusion due to time zone crossing. See the QXE2087 flight status page for this flight to view local times or setup timezone preferences in your user account.

Time Position Orientation Groundspeed Altitude Reporting Facility
EDT Latitude Longitude Course Direction KTS MPH feet Rate Location/Type
09:32AM 46.3106 -118.8900 296° West  Level Estimated
09:33AM 46.3463 -118.9906 294° West  Level Estimated
09:34AM 46.3580 -119.1025 279° West  Level FlightAware Approximate
09:35AM 46.3942 -119.2028 284° West  Level Estimated
09:36AM 46.4303 -119.3033 290° West  Level Estimated
09:37AM 46.4443 -119.4148 280° West  Level FlightAware Approximate
09:38AM 46.4566 -119.5139 280° West  Level FlightAware Approximate
09:39AM 46.4689 -119.6131 280° West  Level FlightAware Approximate
09:40AM 46.4810 -119.7123 280° West  Level FlightAware Approximate
09:41AM 46.5153 -119.8000 299° West  Level Estimated
09:42AM 46.5494 -119.8878 314° West  Level Estimated
09:43AM 46.5835 -119.9757 302° West  Level Estimated
09:44AM 46.6175 -120.0637 326° Northwest  Level Estimated
09:45AM 46.6515 -120.1519 314° West  Level Estimated
09:46AM 46.6854 -120.2401 299° West  Level Estimated
09:47AM 46.7192 -120.3285 306° West  Level Estimated
09:48AM 46.7530 -120.4169 303° West  Level Estimated
09:49AM 46.7769 -120.5120 290° West  Level FlightAware Approximate
09:50AM 46.8130 -120.6054 299° West  Level Estimated
09:51AM 46.8489 -120.6989 299° West  Level Estimated
09:52AM 46.8848 -120.7926 299° West  Level Estimated
09:53AM 46.9206 -120.8863 299° West  Level Estimated
09:54AM 46.9563 -120.9802 299° West  Level Estimated
09:55AM 46.9644 -121.0882 276° West  Level FlightAware Approximate
09:56AM 46.9723 -121.1963 276° West  Level FlightAware Approximate
09:57AM 46.9801 -121.3043 276° West  Level FlightAware Approximate
09:58AM 47.0224 -121.3936 303° West  Level Estimated
09:59AM 47.0647 -121.4830 290° West  Level Estimated
10:00AM 47.1068 -121.5726 310° West  Level Estimated
10:01AM 47.1490 -121.6623 270° West  Level Estimated
10:02AM 47.1910 -121.7521 306° West  Level Estimated
10:03AM 47.2330 -121.8421 301° West  Level Estimated
10:04AM 47.2675 -121.9388 298° West  Level FlightAware Approximate
10:05AM 47.3110 -122.0273 315° West  Level Estimated
10:06AM 47.3544 -122.1160 306° West  Level Estimated
10:07AM 47.3913 -122.2110 300° West  Level FlightAware Approximate
10:08AM 47.4333 -122.3000 306° West  Level FlightAware Approximate
10:09AM 47.4499 -122.3118 306° West  Level Estimated
10:10AM 47.4499 -122.3118 306° West  Level Estimated
10:11AM 47.4499 -122.3118 306° West  Level Estimated
10:12AM 47.4499 -122.3118 306° West  Level Estimated
10:13AM 47.4499 -122.3118 306° West  Level Estimated
10:14AM 47.4499 -122.3118 306° West  Level Estimated
10:15AM 47.4499 -122.3118 306° West  Level Estimated
10:16AM 47.4499 -122.3118 195° South  Level Estimated
10:17AM 47.4499 -122.3118 195° South  Level Estimated
10:18AM 47.4499 -122.3118 195° South  Level Estimated
10:19AM 47.4499 -122.3118 195° South  Level Estimated
10:20AM 47.4499 -122.3118 195° South  Level Estimated
10:21AM 47.4499 -122.3118 195° South  Level Estimated
10:22AM 47.4499 -122.3118 195° South  Level Estimated
10:23AM 47.4499 -122.3118 195° South  Level Estimated
10:24AM 47.4499 -122.3118 90° East  Level Estimated
10:25AM 47.4499 -122.3118 90° East  Level Estimated
10:26AM 47.4499 -122.3118 90° East  Level Estimated